sensor_id;sensor_type;location;lat;lon;timestamp;temperature;humidity
33827;DHT22;20128;45.582;5.298;2022-11-20T00:02:23;9.80;78.30
33827;DHT22;20128;45.582;5.298;2022-11-20T00:04:48;9.80;78.30
33827;DHT22;20128;45.582;5.298;2022-11-20T00:07:14;9.70;78.30
33827;DHT22;20128;45.582;5.298;2022-11-20T00:09:39;9.70;78.40
33827;DHT22;20128;45.582;5.298;2022-11-20T00:12:05;9.70;78.40
33827;DHT22;20128;45.582;5.298;2022-11-20T00:14:31;9.70;78.40
33827;DHT22;20128;45.582;5.298;2022-11-20T00:16:57;9.70;78.40
33827;DHT22;20128;45.582;5.298;2022-11-20T00:19:22;9.70;78.60
33827;DHT22;20128;45.582;5.298;2022-11-20T00:21:48;9.70;78.80
33827;DHT22;20128;45.582;5.298;2022-11-20T00:24:16;9.70;78.80
33827;DHT22;20128;45.582;5.298;2022-11-20T00:26:42;9.60;78.80
33827;DHT22;20128;45.582;5.298;2022-11-20T00:29:09;9.70;78.90
33827;DHT22;20128;45.582;5.298;2022-11-20T00:31:35;9.70;78.90
33827;DHT22;20128;45.582;5.298;2022-11-20T00:34:01;9.70;78.90
33827;DHT22;20128;45.582;5.298;2022-11-20T00:36:28;9.70;78.90
33827;DHT22;20128;45.582;5.298;2022-11-20T00:38:56;9.70;78.80
33827;DHT22;20128;45.582;5.298;2022-11-20T00:41:23;9.70;78.60
33827;DHT22;20128;45.582;5.298;2022-11-20T00:43:50;9.80;78.70
33827;DHT22;20128;45.582;5.298;2022-11-20T00:46:18;9.80;78.80
33827;DHT22;20128;45.582;5.298;2022-11-20T00:48:45;9.80;78.70
33827;DHT22;20128;45.582;5.298;2022-11-20T00:51:19;9.80;78.80
33827;DHT22;20128;45.582;5.298;2022-11-20T00:53:45;9.80;78.60
33827;DHT22;20128;45.582;5.298;2022-11-20T00:56:13;9.70;78.60
33827;DHT22;20128;45.582;5.298;2022-11-20T00:58:40;9.70;78.70
33827;DHT22;20128;45.582;5.298;2022-11-20T01:01:09;9.80;78.60
33827;DHT22;20128;45.582;5.298;2022-11-20T01:03:37;9.70;78.50
33827;DHT22;20128;45.582;5.298;2022-11-20T01:06:05;9.70;78.70
33827;DHT22;20128;45.582;5.298;2022-11-20T01:08:33;9.70;78.90
33827;DHT22;20128;45.582;5.298;2022-11-20T01:11:06;9.80;78.80
33827;DHT22;20128;45.582;5.298;2022-11-20T01:13:33;9.80;78.70
33827;DHT22;20128;45.582;5.298;2022-11-20T01:16:14;9.80;78.70
33827;DHT22;20128;45.582;5.298;2022-11-20T01:18:42;9.80;78.70
33827;DHT22;20128;45.582;5.298;2022-11-20T01:21:14;9.90;78.60
33827;DHT22;20128;45.582;5.298;2022-11-20T01:23:41;9.80;78.50
33827;DHT22;20128;45.582;5.298;2022-11-20T01:26:11;9.90;78.40
33827;DHT22;20128;45.582;5.298;2022-11-20T01:28:37;9.80;78.50
33827;DHT22;20128;45.582;5.298;2022-11-20T01:33:37;9.90;78.60
33827;DHT22;20128;45.582;5.298;2022-11-20T01:36:05;9.90;78.60
33827;DHT22;20128;45.582;5.298;2022-11-20T01:38:31;9.90;78.50
33827;DHT22;20128;45.582;5.298;2022-11-20T01:40:56;9.90;78.20
33827;DHT22;20128;45.582;5.298;2022-11-20T01:43:23;9.90;78.10
33827;DHT22;20128;45.582;5.298;2022-11-20T01:48:16;9.90;78.20
33827;DHT22;20128;45.582;5.298;2022-11-20T01:50:43;9.90;78.20
33827;DHT22;20128;45.582;5.298;2022-11-20T01:53:12;9.90;78.30
33827;DHT22;20128;45.582;5.298;2022-11-20T01:55:51;9.80;78.40
33827;DHT22;20128;45.582;5.298;2022-11-20T01:58:21;9.80;78.60
33827;DHT22;20128;45.582;5.298;2022-11-20T02:00:48;9.80;78.60
33827;DHT22;20128;45.582;5.298;2022-11-20T02:03:16;9.70;78.80
33827;DHT22;20128;45.582;5.298;2022-11-20T02:05:51;9.70;78.90
33827;DHT22;20128;45.582;5.298;2022-11-20T02:08:20;9.70;78.80
33827;DHT22;20128;45.582;5.298;2022-11-20T02:10:47;9.70;79.00
33827;DHT22;20128;45.582;5.298;2022-11-20T02:13:12;9.70;79.20
33827;DHT22;20128;45.582;5.298;2022-11-20T02:15:57;9.70;79.30
33827;DHT22;20128;45.582;5.298;2022-11-20T02:18:23;9.70;79.20
33827;DHT22;20128;45.582;5.298;2022-11-20T02:20:55;9.70;79.30
33827;DHT22;20128;45.582;5.298;2022-11-20T02:23:32;9.70;79.40
33827;DHT22;20128;45.582;5.298;2022-11-20T02:26:01;9.70;79.50
33827;DHT22;20128;45.582;5.298;2022-11-20T02:28:28;9.70;79.40
33827;DHT22;20128;45.582;5.298;2022-11-20T02:30:54;9.70;79.40
33827;DHT22;20128;45.582;5.298;2022-11-20T02:33:20;9.70;79.20
33827;DHT22;20128;45.582;5.298;2022-11-20T02:35:46;9.70;79.20
33827;DHT22;20128;45.582;5.298;2022-11-20T02:38:13;9.70;79.40
33827;DHT22;20128;45.582;5.298;2022-11-20T02:40:39;9.70;79.30
33827;DHT22;20128;45.582;5.298;2022-11-20T02:43:05;9.70;79.40
33827;DHT22;20128;45.582;5.298;2022-11-20T02:45:31;9.70;79.30
33827;DHT22;20128;45.582;5.298;2022-11-20T02:47:57;9.70;79.20
33827;DHT22;20128;45.582;5.298;2022-11-20T02:50:22;9.70;79.30
33827;DHT22;20128;45.582;5.298;2022-11-20T02:52:48;9.70;79.30
33827;DHT22;20128;45.582;5.298;2022-11-20T02:55:14;9.70;79.20
33827;DHT22;20128;45.582;5.298;2022-11-20T02:57:39;9.70;79.20
33827;DHT22;20128;45.582;5.298;2022-11-20T03:00:06;9.70;79.20
33827;DHT22;20128;45.582;5.298;2022-11-20T03:02:32;9.70;79.20
33827;DHT22;20128;45.582;5.298;2022-11-20T03:04:58;9.70;79.00
33827;DHT22;20128;45.582;5.298;2022-11-20T03:07:24;9.70;79.20
33827;DHT22;20128;45.582;5.298;2022-11-20T03:09:49;9.70;79.20
33827;DHT22;20128;45.582;5.298;2022-11-20T03:12:15;9.70;79.20
33827;DHT22;20128;45.582;5.298;2022-11-20T03:14:40;9.70;79.30
33827;DHT22;20128;45.582;5.298;2022-11-20T03:17:06;9.70;79.30
33827;DHT22;20128;45.582;5.298;2022-11-20T03:19:32;9.70;79.40
33827;DHT22;20128;45.582;5.298;2022-11-20T03:21:57;9.70;79.20
33827;DHT22;20128;45.582;5.298;2022-11-20T03:24:23;9.70;79.20
33827;DHT22;20128;45.582;5.298;2022-11-20T03:26:49;9.70;79.20
33827;DHT22;20128;45.582;5.298;2022-11-20T03:29:14;9.80;79.20
33827;DHT22;20128;45.582;5.298;2022-11-20T03:31:41;9.70;79.10
33827;DHT22;20128;45.582;5.298;2022-11-20T03:34:08;9.70;78.90
33827;DHT22;20128;45.582;5.298;2022-11-20T03:36:34;9.70;79.20
33827;DHT22;20128;45.582;5.298;2022-11-20T03:39:00;9.70;79.20
33827;DHT22;20128;45.582;5.298;2022-11-20T03:41:27;9.60;79.20
33827;DHT22;20128;45.582;5.298;2022-11-20T03:43:58;9.60;79.40
33827;DHT22;20128;45.582;5.298;2022-11-20T03:46:25;9.60;79.60
33827;DHT22;20128;45.582;5.298;2022-11-20T03:48:51;9.60;79.60
33827;DHT22;20128;45.582;5.298;2022-11-20T03:53:45;9.60;79.50
33827;DHT22;20128;45.582;5.298;2022-11-20T03:56:12;9.70;79.50
33827;DHT22;20128;45.582;5.298;2022-11-20T03:58:39;9.60;79.30
33827;DHT22;20128;45.582;5.298;2022-11-20T04:01:10;9.60;79.40
33827;DHT22;20128;45.582;5.298;2022-11-20T04:03:37;9.60;79.50
33827;DHT22;20128;45.582;5.298;2022-11-20T04:06:15;9.70;79.50
33827;DHT22;20128;45.582;5.298;2022-11-20T04:08:42;9.70;79.50
33827;DHT22;20128;45.582;5.298;2022-11-20T04:11:29;9.70;79.30
33827;DHT22;20128;45.582;5.298;2022-11-20T04:13:57;9.70;79.30
33827;DHT22;20128;45.582;5.298;2022-11-20T04:16:25;9.60;79.20
33827;DHT22;20128;45.582;5.298;2022-11-20T04:18:55;9.70;79.20
33827;DHT22;20128;45.582;5.298;2022-11-20T04:21:21;9.60;79.10
33827;DHT22;20128;45.582;5.298;2022-11-20T04:23:47;9.60;79.10
33827;DHT22;20128;45.582;5.298;2022-11-20T04:26:13;9.60;79.10
33827;DHT22;20128;45.582;5.298;2022-11-20T04:28:39;9.60;79.10
33827;DHT22;20128;45.582;5.298;2022-11-20T04:31:11;9.60;79.10
33827;DHT22;20128;45.582;5.298;2022-11-20T04:33:38;9.60;79.10
33827;DHT22;20128;45.582;5.298;2022-11-20T04:36:18;9.60;79.30
33827;DHT22;20128;45.582;5.298;2022-11-20T04:38:44;9.60;79.40
33827;DHT22;20128;45.582;5.298;2022-11-20T04:41:21;9.60;79.40
33827;DHT22;20128;45.582;5.298;2022-11-20T04:43:48;9.60;79.50
33827;DHT22;20128;45.582;5.298;2022-11-20T04:46:15;9.60;79.40
33827;DHT22;20128;45.582;5.298;2022-11-20T04:48:40;9.50;79.40
33827;DHT22;20128;45.582;5.298;2022-11-20T04:51:06;9.60;79.60
33827;DHT22;20128;45.582;5.298;2022-11-20T04:53:32;9.60;79.60
33827;DHT22;20128;45.582;5.298;2022-11-20T04:56:02;9.60;79.60
33827;DHT22;20128;45.582;5.298;2022-11-20T04:58:28;9.60;79.40
33827;DHT22;20128;45.582;5.298;2022-11-20T05:01:00;9.50;79.30
33827;DHT22;20128;45.582;5.298;2022-11-20T05:03:25;9.50;79.20
33827;DHT22;20128;45.582;5.298;2022-11-20T05:05:51;9.50;79.10
33827;DHT22;20128;45.582;5.298;2022-11-20T05:08:16;9.50;79.00
33827;DHT22;20128;45.582;5.298;2022-11-20T05:10:42;9.50;79.10
33827;DHT22;20128;45.582;5.298;2022-11-20T05:13:07;9.50;79.30
33827;DHT22;20128;45.582;5.298;2022-11-20T05:15:33;9.50;79.40
33827;DHT22;20128;45.582;5.298;2022-11-20T05:17:59;9.50;79.50
33827;DHT22;20128;45.582;5.298;2022-11-20T05:20:24;9.50;79.70
33827;DHT22;20128;45.582;5.298;2022-11-20T05:22:50;9.40;79.80
33827;DHT22;20128;45.582;5.298;2022-11-20T05:25:15;9.50;79.80
33827;DHT22;20128;45.582;5.298;2022-11-20T05:27:41;9.50;79.60
33827;DHT22;20128;45.582;5.298;2022-11-20T05:30:08;9.50;79.70
33827;DHT22;20128;45.582;5.298;2022-11-20T05:32:34;9.40;79.70
33827;DHT22;20128;45.582;5.298;2022-11-20T05:34:59;9.50;79.90
33827;DHT22;20128;45.582;5.298;2022-11-20T05:37:25;9.50;80.00
33827;DHT22;20128;45.582;5.298;2022-11-20T05:39:51;9.40;79.90
33827;DHT22;20128;45.582;5.298;2022-11-20T05:42:16;9.40;79.80
33827;DHT22;20128;45.582;5.298;2022-11-20T05:45:02;9.50;79.60
33827;DHT22;20128;45.582;5.298;2022-11-20T05:47:32;9.40;79.50
33827;DHT22;20128;45.582;5.298;2022-11-20T05:49:59;9.50;79.60
33827;DHT22;20128;45.582;5.298;2022-11-20T05:52:27;9.50;79.80
33827;DHT22;20128;45.582;5.298;2022-11-20T05:54:53;9.40;79.70
33827;DHT22;20128;45.582;5.298;2022-11-20T05:57:18;9.50;79.80
33827;DHT22;20128;45.582;5.298;2022-11-20T05:59:44;9.40;79.70
33827;DHT22;20128;45.582;5.298;2022-11-20T06:02:10;9.50;79.80
33827;DHT22;20128;45.582;5.298;2022-11-20T06:04:35;9.40;79.80
33827;DHT22;20128;45.582;5.298;2022-11-20T06:07:01;9.40;79.80
33827;DHT22;20128;45.582;5.298;2022-11-20T06:09:26;9.30;79.80
33827;DHT22;20128;45.582;5.298;2022-11-20T06:11:52;9.30;79.90
33827;DHT22;20128;45.582;5.298;2022-11-20T06:14:18;9.30;80.10
33827;DHT22;20128;45.582;5.298;2022-11-20T06:16:43;9.30;80.10
33827;DHT22;20128;45.582;5.298;2022-11-20T06:19:09;9.30;80.20
33827;DHT22;20128;45.582;5.298;2022-11-20T06:21:35;9.40;80.30
33827;DHT22;20128;45.582;5.298;2022-11-20T06:24:00;9.40;80.30
33827;DHT22;20128;45.582;5.298;2022-11-20T06:26:27;9.40;80.20
33827;DHT22;20128;45.582;5.298;2022-11-20T06:28:53;9.40;80.10
33827;DHT22;20128;45.582;5.298;2022-11-20T06:31:22;9.40;80.20
33827;DHT22;20128;45.582;5.298;2022-11-20T06:33:48;9.40;80.10
33827;DHT22;20128;45.582;5.298;2022-11-20T06:36:16;9.50;80.10
33827;DHT22;20128;45.582;5.298;2022-11-20T06:38:43;9.50;80.00
33827;DHT22;20128;45.582;5.298;2022-11-20T06:41:15;9.50;80.00
33827;DHT22;20128;45.582;5.298;2022-11-20T06:43:41;9.50;80.00
33827;DHT22;20128;45.582;5.298;2022-11-20T06:46:08;9.50;80.10
33827;DHT22;20128;45.582;5.298;2022-11-20T06:48:34;9.50;80.10
33827;DHT22;20128;45.582;5.298;2022-11-20T06:50:59;9.50;80.20
33827;DHT22;20128;45.582;5.298;2022-11-20T06:53:27;9.50;80.10
33827;DHT22;20128;45.582;5.298;2022-11-20T06:55:56;9.50;80.20
33827;DHT22;20128;45.582;5.298;2022-11-20T06:58:22;9.50;80.30
33827;DHT22;20128;45.582;5.298;2022-11-20T07:00:47;9.50;80.40
33827;DHT22;20128;45.582;5.298;2022-11-20T07:03:13;9.50;80.40
33827;DHT22;20128;45.582;5.298;2022-11-20T07:05:39;9.50;80.30
33827;DHT22;20128;45.582;5.298;2022-11-20T07:08:05;9.50;80.30
33827;DHT22;20128;45.582;5.298;2022-11-20T07:10:32;9.50;80.30
33827;DHT22;20128;45.582;5.298;2022-11-20T07:12:57;9.50;80.30
33827;DHT22;20128;45.582;5.298;2022-11-20T07:15:24;9.50;80.30
33827;DHT22;20128;45.582;5.298;2022-11-20T07:17:50;9.50;80.40
33827;DHT22;20128;45.582;5.298;2022-11-20T07:20:16;9.50;80.40
33827;DHT22;20128;45.582;5.298;2022-11-20T07:22:42;9.50;80.30
33827;DHT22;20128;45.582;5.298;2022-11-20T07:25:08;9.50;80.30
33827;DHT22;20128;45.582;5.298;2022-11-20T07:27:34;9.50;80.30
33827;DHT22;20128;45.582;5.298;2022-11-20T07:30:00;9.50;80.40
33827;DHT22;20128;45.582;5.298;2022-11-20T07:32:26;9.50;80.30
33827;DHT22;20128;45.582;5.298;2022-11-20T07:34:52;9.50;80.00
33827;DHT22;20128;45.582;5.298;2022-11-20T07:37:18;9.50;79.80
33827;DHT22;20128;45.582;5.298;2022-11-20T07:39:43;9.50;79.70
33827;DHT22;20128;45.582;5.298;2022-11-20T07:42:09;9.50;79.80
33827;DHT22;20128;45.582;5.298;2022-11-20T07:44:35;9.40;79.90
33827;DHT22;20128;45.582;5.298;2022-11-20T07:47:01;9.40;79.90
33827;DHT22;20128;45.582;5.298;2022-11-20T07:49:27;9.40;80.00
33827;DHT22;20128;45.582;5.298;2022-11-20T07:51:53;9.40;80.10
33827;DHT22;20128;45.582;5.298;2022-11-20T07:54:19;9.40;80.10
33827;DHT22;20128;45.582;5.298;2022-11-20T07:56:46;9.40;80.00
33827;DHT22;20128;45.582;5.298;2022-11-20T07:59:12;9.40;79.90
33827;DHT22;20128;45.582;5.298;2022-11-20T08:01:38;9.40;79.80
33827;DHT22;20128;45.582;5.298;2022-11-20T08:04:04;9.30;79.80
33827;DHT22;20128;45.582;5.298;2022-11-20T08:06:30;9.30;79.80
33827;DHT22;20128;45.582;5.298;2022-11-20T08:08:56;9.30;79.90
33827;DHT22;20128;45.582;5.298;2022-11-20T08:11:22;9.30;79.80
33827;DHT22;20128;45.582;5.298;2022-11-20T08:14:06;9.30;79.80
33827;DHT22;20128;45.582;5.298;2022-11-20T08:16:48;9.30;79.80
33827;DHT22;20128;45.582;5.298;2022-11-20T08:19:16;9.30;79.90
33827;DHT22;20128;45.582;5.298;2022-11-20T08:21:42;9.30;79.90
33827;DHT22;20128;45.582;5.298;2022-11-20T08:24:09;9.30;80.00
33827;DHT22;20128;45.582;5.298;2022-11-20T08:26:36;9.30;80.00
33827;DHT22;20128;45.582;5.298;2022-11-20T08:29:03;9.40;79.80
33827;DHT22;20128;45.582;5.298;2022-11-20T08:31:29;9.40;79.80
33827;DHT22;20128;45.582;5.298;2022-11-20T08:33:55;9.40;79.90
33827;DHT22;20128;45.582;5.298;2022-11-20T08:36:22;9.40;80.00
33827;DHT22;20128;45.582;5.298;2022-11-20T08:38:52;9.40;80.00
33827;DHT22;20128;45.582;5.298;2022-11-20T08:41:18;9.50;80.10
33827;DHT22;20128;45.582;5.298;2022-11-20T08:43:58;9.50;80.40
33827;DHT22;20128;45.582;5.298;2022-11-20T08:46:25;9.60;80.70
33827;DHT22;20128;45.582;5.298;2022-11-20T08:48:51;9.70;80.70
33827;DHT22;20128;45.582;5.298;2022-11-20T08:51:17;9.70;80.90
33827;DHT22;20128;45.582;5.298;2022-11-20T08:53:43;9.80;80.90
33827;DHT22;20128;45.582;5.298;2022-11-20T08:56:09;9.90;80.70
33827;DHT22;20128;45.582;5.298;2022-11-20T08:58:36;10.00;80.40
33827;DHT22;20128;45.582;5.298;2022-11-20T09:01:02;10.10;80.10
33827;DHT22;20128;45.582;5.298;2022-11-20T09:03:27;10.20;79.60
33827;DHT22;20128;45.582;5.298;2022-11-20T09:05:57;10.30;79.50
33827;DHT22;20128;45.582;5.298;2022-11-20T09:08:23;10.40;78.60
33827;DHT22;20128;45.582;5.298;2022-11-20T09:10:52;10.50;77.60
33827;DHT22;20128;45.582;5.298;2022-11-20T09:13:19;10.60;77.00
33827;DHT22;20128;45.582;5.298;2022-11-20T09:15:45;10.60;76.20
33827;DHT22;20128;45.582;5.298;2022-11-20T09:18:10;10.60;76.00
33827;DHT22;20128;45.582;5.298;2022-11-20T09:20:36;10.50;76.30
33827;DHT22;20128;45.582;5.298;2022-11-20T09:23:02;10.50;76.10
33827;DHT22;20128;45.582;5.298;2022-11-20T09:25:28;10.40;76.00
33827;DHT22;20128;45.582;5.298;2022-11-20T09:27:55;10.40;76.60
33827;DHT22;20128;45.582;5.298;2022-11-20T09:30:21;10.40;77.00
33827;DHT22;20128;45.582;5.298;2022-11-20T09:32:47;10.30;76.80
33827;DHT22;20128;45.582;5.298;2022-11-20T09:35:12;10.30;76.90
33827;DHT22;20128;45.582;5.298;2022-11-20T09:37:39;10.30;77.30
33827;DHT22;20128;45.582;5.298;2022-11-20T09:40:06;10.40;76.10
33827;DHT22;20128;45.582;5.298;2022-11-20T09:42:41;10.40;75.80
33827;DHT22;20128;45.582;5.298;2022-11-20T09:50:25;10.40;76.10
33827;DHT22;20128;45.582;5.298;2022-11-20T09:53:11;10.50;76.30
33827;DHT22;20128;45.582;5.298;2022-11-20T09:55:37;10.40;76.10
33827;DHT22;20128;45.582;5.298;2022-11-20T09:58:07;10.40;76.50
33827;DHT22;20128;45.582;5.298;2022-11-20T10:00:35;10.40;76.60
33827;DHT22;20128;45.582;5.298;2022-11-20T10:03:18;10.40;77.00
33827;DHT22;20128;45.582;5.298;2022-11-20T10:05:46;10.50;77.10
33827;DHT22;20128;45.582;5.298;2022-11-20T10:08:19;10.60;76.60
33827;DHT22;20128;45.582;5.298;2022-11-20T10:10:52;10.70;76.70
33827;DHT22;20128;45.582;5.298;2022-11-20T10:30:42;11.10;74.60
33827;DHT22;20128;45.582;5.298;2022-11-20T10:33:22;11.00;74.10
33827;DHT22;20128;45.582;5.298;2022-11-20T10:38:37;10.90;73.40
33827;DHT22;20128;45.582;5.298;2022-11-20T10:41:05;11.10;73.60
33827;DHT22;20128;45.582;5.298;2022-11-20T10:43:56;11.10;73.50
33827;DHT22;20128;45.582;5.298;2022-11-20T10:46:25;11.10;72.60
33827;DHT22;20128;45.582;5.298;2022-11-20T10:48:55;11.10;72.70
33827;DHT22;20128;45.582;5.298;2022-11-20T11:00:09;11.30;72.30
33827;DHT22;20128;45.582;5.298;2022-11-20T11:02:54;11.40;72.10
33827;DHT22;20128;45.582;5.298;2022-11-20T11:07:55;11.50;71.30
33827;DHT22;20128;45.582;5.298;2022-11-20T11:10:28;11.60;71.10
33827;DHT22;20128;45.582;5.298;2022-11-20T11:12:57;11.90;72.70
33827;DHT22;20128;45.582;5.298;2022-11-20T11:15:39;12.10;71.40
33827;DHT22;20128;45.582;5.298;2022-11-20T11:18:09;12.40;72.10
33827;DHT22;20128;45.582;5.298;2022-11-20T11:20:37;12.70;70.70
33827;DHT22;20128;45.582;5.298;2022-11-20T11:23:03;12.80;70.90
33827;DHT22;20128;45.582;5.298;2022-11-20T11:25:31;12.90;68.90
33827;DHT22;20128;45.582;5.298;2022-11-20T11:30:44;12.80;66.80
33827;DHT22;20128;45.582;5.298;2022-11-20T11:33:18;12.70;66.00
33827;DHT22;20128;45.582;5.298;2022-11-20T11:35:48;12.70;65.60
33827;DHT22;20128;45.582;5.298;2022-11-20T11:38:22;12.70;65.70
33827;DHT22;20128;45.582;5.298;2022-11-20T11:40:49;12.70;66.20
33827;DHT22;20128;45.582;5.298;2022-11-20T11:43:28;12.70;66.00
33827;DHT22;20128;45.582;5.298;2022-11-20T11:49:11;12.80;67.40
33827;DHT22;20128;45.582;5.298;2022-11-20T11:54:23;12.90;66.60
33827;DHT22;20128;45.582;5.298;2022-11-20T11:56:49;12.80;64.90
33827;DHT22;20128;45.582;5.298;2022-11-20T11:59:33;12.80;64.90
33827;DHT22;20128;45.582;5.298;2022-11-20T12:02:20;12.70;64.60
33827;DHT22;20128;45.582;5.298;2022-11-20T12:05:22;12.90;67.80
33827;DHT22;20128;45.582;5.298;2022-11-20T12:13:09;13.30;67.60
33827;DHT22;20128;45.582;5.298;2022-11-20T12:15:41;13.40;67.70
33827;DHT22;20128;45.582;5.298;2022-11-20T12:18:15;13.40;65.40
33827;DHT22;20128;45.582;5.298;2022-11-20T12:20:46;13.40;65.80
33827;DHT22;20128;45.582;5.298;2022-11-20T12:23:32;13.30;64.30
33827;DHT22;20128;45.582;5.298;2022-11-20T12:26:05;13.30;65.80
33827;DHT22;20128;45.582;5.298;2022-11-20T12:36:41;13.60;66.50
33827;DHT22;20128;45.582;5.298;2022-11-20T12:39:26;13.70;66.30
33827;DHT22;20128;45.582;5.298;2022-11-20T13:05:09;13.50;62.60
33827;DHT22;20128;45.582;5.298;2022-11-20T13:07:40;13.60;62.90
33827;DHT22;20128;45.582;5.298;2022-11-20T13:10:16;13.60;62.90
33827;DHT22;20128;45.582;5.298;2022-11-20T13:12:54;13.60;63.10
33827;DHT22;20128;45.582;5.298;2022-11-20T13:18:11;13.60;62.00
33827;DHT22;20128;45.582;5.298;2022-11-20T13:20:43;13.70;60.30
33827;DHT22;20128;45.582;5.298;2022-11-20T13:23:09;13.60;60.50
33827;DHT22;20128;45.582;5.298;2022-11-20T13:25:37;13.60;60.00
33827;DHT22;20128;45.582;5.298;2022-11-20T13:30:31;13.60;60.60
33827;DHT22;20128;45.582;5.298;2022-11-20T13:35:32;13.70;60.10
33827;DHT22;20128;45.582;5.298;2022-11-20T13:38:12;13.60;58.30
33827;DHT22;20128;45.582;5.298;2022-11-20T13:43:21;13.70;63.10
33827;DHT22;20128;45.582;5.298;2022-11-20T13:46:03;13.70;62.20
33827;DHT22;20128;45.582;5.298;2022-11-20T13:48:43;13.70;63.80
33827;DHT22;20128;45.582;5.298;2022-11-20T13:59:53;13.80;63.20
33827;DHT22;20128;45.582;5.298;2022-11-20T14:02:23;13.90;62.10
33827;DHT22;20128;45.582;5.298;2022-11-20T14:04:53;13.90;62.80
33827;DHT22;20128;45.582;5.298;2022-11-20T14:07:24;13.90;63.30
33827;DHT22;20128;45.582;5.298;2022-11-20T14:09:55;13.90;63.50
33827;DHT22;20128;45.582;5.298;2022-11-20T14:12:27;13.90;64.60
33827;DHT22;20128;45.582;5.298;2022-11-20T14:14:54;14.10;64.80
33827;DHT22;20128;45.582;5.298;2022-11-20T14:17:32;14.00;64.80
33827;DHT22;20128;45.582;5.298;2022-11-20T14:20:05;14.00;62.90
33827;DHT22;20128;45.582;5.298;2022-11-20T14:22:33;13.90;62.30
33827;DHT22;20128;45.582;5.298;2022-11-20T14:27:41;13.90;64.60
33827;DHT22;20128;45.582;5.298;2022-11-20T14:30:16;14.00;64.80
33827;DHT22;20128;45.582;5.298;2022-11-20T14:32:44;14.00;64.50
33827;DHT22;20128;45.582;5.298;2022-11-20T14:35:26;14.00;65.30
33827;DHT22;20128;45.582;5.298;2022-11-20T14:37:52;14.10;65.20
33827;DHT22;20128;45.582;5.298;2022-11-20T14:40:26;14.20;66.00
33827;DHT22;20128;45.582;5.298;2022-11-20T14:42:53;14.20;65.70
33827;DHT22;20128;45.582;5.298;2022-11-20T14:45:19;14.30;65.90
33827;DHT22;20128;45.582;5.298;2022-11-20T14:47:50;14.30;65.60
33827;DHT22;20128;45.582;5.298;2022-11-20T14:50:24;14.30;65.40
33827;DHT22;20128;45.582;5.298;2022-11-20T14:52:55;14.30;65.70
33827;DHT22;20128;45.582;5.298;2022-11-20T14:55:30;14.40;65.80
33827;DHT22;20128;45.582;5.298;2022-11-20T14:57:58;14.40;65.80
33827;DHT22;20128;45.582;5.298;2022-11-20T15:00:25;14.40;65.00
33827;DHT22;20128;45.582;5.298;2022-11-20T15:02:53;14.30;64.30
33827;DHT22;20128;45.582;5.298;2022-11-20T15:05:22;14.20;63.90
33827;DHT22;20128;45.582;5.298;2022-11-20T15:07:51;14.10;63.30
33827;DHT22;20128;45.582;5.298;2022-11-20T15:10:25;13.90;62.60
33827;DHT22;20128;45.582;5.298;2022-11-20T15:12:56;13.70;62.90
33827;DHT22;20128;45.582;5.298;2022-11-20T15:15:32;13.40;63.00
33827;DHT22;20128;45.582;5.298;2022-11-20T15:17:59;13.30;63.00
33827;DHT22;20128;45.582;5.298;2022-11-20T15:20:28;13.20;63.30
33827;DHT22;20128;45.582;5.298;2022-11-20T15:22:55;13.00;63.50
33827;DHT22;20128;45.582;5.298;2022-11-20T15:25:20;12.90;63.80
33827;DHT22;20128;45.582;5.298;2022-11-20T15:27:49;12.80;64.70
33827;DHT22;20128;45.582;5.298;2022-11-20T15:30:20;12.70;64.30
33827;DHT22;20128;45.582;5.298;2022-11-20T15:32:46;12.60;64.50
33827;DHT22;20128;45.582;5.298;2022-11-20T15:35:13;12.60;64.60
33827;DHT22;20128;45.582;5.298;2022-11-20T15:37:39;12.50;64.70
33827;DHT22;20128;45.582;5.298;2022-11-20T15:40:06;12.50;64.80
33827;DHT22;20128;45.582;5.298;2022-11-20T15:42:32;12.50;65.10
33827;DHT22;20128;45.582;5.298;2022-11-20T15:44:58;12.50;65.20
33827;DHT22;20128;45.582;5.298;2022-11-20T15:47:31;12.30;65.20
33827;DHT22;20128;45.582;5.298;2022-11-20T15:49:58;12.30;65.20
33827;DHT22;20128;45.582;5.298;2022-11-20T15:52:23;12.20;65.10
33827;DHT22;20128;45.582;5.298;2022-11-20T15:54:49;12.10;65.20
33827;DHT22;20128;45.582;5.298;2022-11-20T15:57:15;12.10;65.50
33827;DHT22;20128;45.582;5.298;2022-11-20T15:59:42;12.00;65.50
33827;DHT22;20128;45.582;5.298;2022-11-20T16:02:12;12.00;65.60
33827;DHT22;20128;45.582;5.298;2022-11-20T16:04:38;12.00;66.60
33827;DHT22;20128;45.582;5.298;2022-11-20T16:07:04;12.00;65.60
33827;DHT22;20128;45.582;5.298;2022-11-20T16:09:30;12.10;65.60
33827;DHT22;20128;45.582;5.298;2022-11-20T16:11:56;12.10;65.80
33827;DHT22;20128;45.582;5.298;2022-11-20T16:14:23;12.00;66.00
33827;DHT22;20128;45.582;5.298;2022-11-20T16:17:27;12.00;66.20
33827;DHT22;20128;45.582;5.298;2022-11-20T16:20:11;11.90;66.20
33827;DHT22;20128;45.582;5.298;2022-11-20T16:22:36;11.90;66.20
33827;DHT22;20128;45.582;5.298;2022-11-20T16:25:02;11.80;66.40
33827;DHT22;20128;45.582;5.298;2022-11-20T16:27:28;11.70;66.70
33827;DHT22;20128;45.582;5.298;2022-11-20T16:29:53;11.60;67.00
33827;DHT22;20128;45.582;5.298;2022-11-20T16:32:19;11.60;67.40
33827;DHT22;20128;45.582;5.298;2022-11-20T16:34:44;11.50;67.80
33827;DHT22;20128;45.582;5.298;2022-11-20T16:37:10;11.50;68.10
33827;DHT22;20128;45.582;5.298;2022-11-20T16:39:36;11.50;68.30
33827;DHT22;20128;45.582;5.298;2022-11-20T16:42:04;11.40;68.60
33827;DHT22;20128;45.582;5.298;2022-11-20T16:44:30;11.50;68.70
33827;DHT22;20128;45.582;5.298;2022-11-20T16:46:56;11.40;68.60
33827;DHT22;20128;45.582;5.298;2022-11-20T16:49:21;11.50;68.70
33827;DHT22;20128;45.582;5.298;2022-11-20T16:51:47;11.40;68.50
33827;DHT22;20128;45.582;5.298;2022-11-20T16:54:13;11.40;68.80
33827;DHT22;20128;45.582;5.298;2022-11-20T16:56:38;11.40;69.30
33827;DHT22;20128;45.582;5.298;2022-11-20T16:59:04;11.50;69.20
33827;DHT22;20128;45.582;5.298;2022-11-20T17:01:31;11.50;68.70
33827;DHT22;20128;45.582;5.298;2022-11-20T17:04:06;11.60;68.70
33827;DHT22;20128;45.582;5.298;2022-11-20T17:06:37;11.50;69.10
33827;DHT22;20128;45.582;5.298;2022-11-20T17:09:03;11.30;69.50
33827;DHT22;20128;45.582;5.298;2022-11-20T17:11:29;11.30;69.70
33827;DHT22;20128;45.582;5.298;2022-11-20T17:13:57;11.30;70.30
33827;DHT22;20128;45.582;5.298;2022-11-20T17:16:27;11.40;69.70
33827;DHT22;20128;45.582;5.298;2022-11-20T17:18:55;11.40;69.50
33827;DHT22;20128;45.582;5.298;2022-11-20T17:21:20;11.30;69.60
33827;DHT22;20128;45.582;5.298;2022-11-20T17:23:46;11.30;71.00
33827;DHT22;20128;45.582;5.298;2022-11-20T17:26:17;11.30;71.60
33827;DHT22;20128;45.582;5.298;2022-11-20T17:28:45;11.30;70.60
33827;DHT22;20128;45.582;5.298;2022-11-20T17:31:17;11.20;69.50
33827;DHT22;20128;45.582;5.298;2022-11-20T17:33:44;11.10;69.40
33827;DHT22;20128;45.582;5.298;2022-11-20T17:36:12;11.10;69.70
33827;DHT22;20128;45.582;5.298;2022-11-20T17:38:38;11.10;70.20
33827;DHT22;20128;45.582;5.298;2022-11-20T17:41:10;11.20;70.40